Impacts METAR Board
IDs:

KSEA - Seattle-Tacoma Intl, WA, US

Updated at: 1300 UTC 21 Aug 2019
Potential Impact None Slight Moderate High
Time 21/01Z 21/02Z 21/03Z 21/04Z 21/05Z 21/06Z 21/07Z 21/08Z 21/09Z 21/10Z 21/11Z 21/12Z 21/13Z
Temp80 79 72 69 66 65 64 62 61 62 61 61 61
Dewpt57 57 56 56 55 54 54 53 53 54 53 54 56
Altim29.90 29.91 29.94 29.96 29.99 30.01 30.01 30.01 30.01 30.00 30.00 30.00 30.00
VIS10 10 10 10 10 10 10 10 10 10 10 10 10
CIG240 240 250 220 240 -- -- -- -- -- 170 -- 110
CoverBKNBKNBKNBKNBKNFEWFEWFEWCLRSCTBKNSCTBKN
FltCatVFRVFRVFRVFRVFRVFRVFRVFRVFRVFRVFRVFRVFR
WX-------------------------RA
WDir22022022022002001500170150180160210
WSpd5 6 11 10 6 7 7 0 4 6 3 3 5
WGst-- -- -- -- -- -- -- -- -- -- -- -- --
Raw hourly METARs
KSEA 210053Z 22005KT 10SM BKN240 27/14 A2990 RMK AO2 SLP131 T02670139
KSEA 210153Z 22006KT 10SM BKN240 26/14 A2991 RMK AO2 SLP131 T02610139
KSEA 210253Z 22011KT 10SM BKN250 22/13 A2994 RMK AO2 SLP142 T02220133 53012
KSEA 210353Z 22010KT 10SM BKN220 21/13 A2996 RMK AO2 SLP151 T02060133
KSEA 210453Z VRB06KT 10SM BKN240 19/13 A2999 RMK AO2 SLP161 T01890128
KSEA 210553Z 20007KT 10SM FEW250 18/12 A3001 RMK AO2 SLP166 T01830122 10272 20183 51023
KSEA 210653Z 15007KT 10SM FEW250 18/12 A3001 RMK AO2 SLP166 T01780122
KSEA 210753Z 00000KT 10SM FEW150 17/12 A3001 RMK AO2 SLP168 T01670117 402780133
KSEA 210853Z 17004KT 10SM CLR 16/12 A3001 RMK AO2 SLP168 T01610117 50002
KSEA 210953Z 15006KT 10SM SCT250 17/12 A3000 RMK AO2 SLP165 T01670122
KSEA 211053Z 18003KT 10SM SCT110 BKN170 16/12 A3000 RMK AO2 SLP163 T01610117
KSEA 211153Z 16003KT 10SM FEW050 SCT110 16/12 A3000 RMK AO2 SLP164 T01610122 10183 20156 55003
KSEA 211253Z 21005KT 10SM -RA FEW055 SCT090 BKN110 16/13 A3000 RMK AO2 RAB25 SLP161 P0000 T01610133



Page loaded:  13:22 UTC  |   06:22 AM Pacific  |   07:22 AM Mountain  |   08:22 AM Central  |   09:22 AM Eastern

 

ADVISORIES

FORECASTS

FORECASTS

OBSERVATIONS

USER TOOLS

ABOUT US